sensor_id;sensor_type;location;lat;lon;timestamp;temperature;humidity
480;DHT22;226;48.606;9.096;2023-03-11T00:00:17;2.40;17.40
480;DHT22;226;48.606;9.096;2023-03-11T00:02:47;2.30;16.70
480;DHT22;226;48.606;9.096;2023-03-11T00:05:18;2.30;16.10
480;DHT22;226;48.606;9.096;2023-03-11T00:07:46;2.30;17.60
480;DHT22;226;48.606;9.096;2023-03-11T00:10:19;2.30;16.90
480;DHT22;226;48.606;9.096;2023-03-11T00:12:48;2.30;16.90
480;DHT22;226;48.606;9.096;2023-03-11T00:15:16;2.20;17.00
480;DHT22;226;48.606;9.096;2023-03-11T00:17:44;2.30;17.10
480;DHT22;226;48.606;9.096;2023-03-11T00:20:16;2.30;17.30
480;DHT22;226;48.606;9.096;2023-03-11T00:22:45;2.20;17.90
480;DHT22;226;48.606;9.096;2023-03-11T00:25:13;2.20;17.00
480;DHT22;226;48.606;9.096;2023-03-11T00:27:43;2.20;17.60
480;DHT22;226;48.606;9.096;2023-03-11T00:30:12;2.10;19.60
480;DHT22;226;48.606;9.096;2023-03-11T00:32:41;2.20;20.40
480;DHT22;226;48.606;9.096;2023-03-11T00:35:11;2.20;18.20
480;DHT22;226;48.606;9.096;2023-03-11T00:37:40;2.10;18.50
480;DHT22;226;48.606;9.096;2023-03-11T00:40:11;2.40;20.90
480;DHT22;226;48.606;9.096;2023-03-11T00:42:40;2.30;18.20
480;DHT22;226;48.606;9.096;2023-03-11T00:45:10;2.30;18.30
480;DHT22;226;48.606;9.096;2023-03-11T00:47:39;2.30;19.30
480;DHT22;226;48.606;9.096;2023-03-11T00:50:09;2.40;17.90
480;DHT22;226;48.606;9.096;2023-03-11T00:52:40;2.50;18.10
480;DHT22;226;48.606;9.096;2023-03-11T00:55:09;2.50;17.90
480;DHT22;226;48.606;9.096;2023-03-11T00:57:37;2.50;18.40
480;DHT22;226;48.606;9.096;2023-03-11T01:00:06;2.60;18.10
480;DHT22;226;48.606;9.096;2023-03-11T01:02:38;2.50;18.10
480;DHT22;226;48.606;9.096;2023-03-11T01:05:07;2.60;17.80
480;DHT22;226;48.606;9.096;2023-03-11T01:07:36;2.50;20.20
480;DHT22;226;48.606;9.096;2023-03-11T01:10:06;2.60;18.90
480;DHT22;226;48.606;9.096;2023-03-11T01:12:34;2.50;19.40
480;DHT22;226;48.606;9.096;2023-03-11T01:15:04;2.50;19.00
480;DHT22;226;48.606;9.096;2023-03-11T01:17:32;2.40;20.20
480;DHT22;226;48.606;9.096;2023-03-11T01:20:02;2.60;20.20
480;DHT22;226;48.606;9.096;2023-03-11T01:22:33;2.50;22.30
480;DHT22;226;48.606;9.096;2023-03-11T01:25:01;2.50;18.50
480;DHT22;226;48.606;9.096;2023-03-11T01:27:29;2.70;19.60
480;DHT22;226;48.606;9.096;2023-03-11T01:29:57;2.50;19.80
480;DHT22;226;48.606;9.096;2023-03-11T01:32:26;2.70;21.60
480;DHT22;226;48.606;9.096;2023-03-11T01:34:54;2.60;20.20
480;DHT22;226;48.606;9.096;2023-03-11T01:37:23;2.50;20.20
480;DHT22;226;48.606;9.096;2023-03-11T01:39:51;2.50;24.20
480;DHT22;226;48.606;9.096;2023-03-11T01:42:19;2.30;26.80
480;DHT22;226;48.606;9.096;2023-03-11T01:44:47;2.30;21.10
480;DHT22;226;48.606;9.096;2023-03-11T01:47:42;2.20;23.10
480;DHT22;226;48.606;9.096;2023-03-11T01:50:11;2.20;22.70
480;DHT22;226;48.606;9.096;2023-03-11T01:52:42;2.20;23.80
480;DHT22;226;48.606;9.096;2023-03-11T01:55:12;2.20;23.30
480;DHT22;226;48.606;9.096;2023-03-11T01:57:42;2.20;23.30
480;DHT22;226;48.606;9.096;2023-03-11T02:00:14;2.00;22.60
480;DHT22;226;48.606;9.096;2023-03-11T02:02:45;2.10;22.00
480;DHT22;226;48.606;9.096;2023-03-11T02:05:17;2.20;21.40
480;DHT22;226;48.606;9.096;2023-03-11T02:07:47;2.20;22.60
480;DHT22;226;48.606;9.096;2023-03-11T02:10:16;2.10;19.90
480;DHT22;226;48.606;9.096;2023-03-11T02:12:45;2.10;20.10
480;DHT22;226;48.606;9.096;2023-03-11T02:15:13;2.10;19.00
480;DHT22;226;48.606;9.096;2023-03-11T02:17:42;2.10;20.50
480;DHT22;226;48.606;9.096;2023-03-11T02:20:19;2.10;19.10
480;DHT22;226;48.606;9.096;2023-03-11T02:22:49;2.00;19.20
480;DHT22;226;48.606;9.096;2023-03-11T02:25:23;1.90;19.40
480;DHT22;226;48.606;9.096;2023-03-11T02:27:56;1.90;19.50
480;DHT22;226;48.606;9.096;2023-03-11T02:30:26;1.90;20.20
480;DHT22;226;48.606;9.096;2023-03-11T02:32:54;2.00;22.20
480;DHT22;226;48.606;9.096;2023-03-11T02:35:23;2.00;18.90
480;DHT22;226;48.606;9.096;2023-03-11T02:37:52;2.00;18.40
480;DHT22;226;48.606;9.096;2023-03-11T02:40:51;2.00;19.10
480;DHT22;226;48.606;9.096;2023-03-11T02:43:24;2.10;20.00
480;DHT22;226;48.606;9.096;2023-03-11T02:45:54;2.10;19.20
480;DHT22;226;48.606;9.096;2023-03-11T02:48:23;2.10;20.90
480;DHT22;226;48.606;9.096;2023-03-11T02:50:51;2.00;21.20
480;DHT22;226;48.606;9.096;2023-03-11T02:53:20;2.00;22.10
480;DHT22;226;48.606;9.096;2023-03-11T02:55:48;2.00;20.80
480;DHT22;226;48.606;9.096;2023-03-11T02:58:16;1.80;20.20
480;DHT22;226;48.606;9.096;2023-03-11T03:00:45;1.80;19.10
480;DHT22;226;48.606;9.096;2023-03-11T03:03:13;1.70;21.10
480;DHT22;226;48.606;9.096;2023-03-11T03:05:41;1.70;20.90
480;DHT22;226;48.606;9.096;2023-03-11T03:08:10;1.60;21.50
480;DHT22;226;48.606;9.096;2023-03-11T03:10:38;1.60;26.10
480;DHT22;226;48.606;9.096;2023-03-11T03:13:06;1.50;28.50
480;DHT22;226;48.606;9.096;2023-03-11T03:15:34;1.60;25.90
480;DHT22;226;48.606;9.096;2023-03-11T03:18:04;1.30;33.70
480;DHT22;226;48.606;9.096;2023-03-11T03:20:32;1.30;20.40
480;DHT22;226;48.606;9.096;2023-03-11T03:23:00;1.20;30.00
480;DHT22;226;48.606;9.096;2023-03-11T03:25:28;1.20;21.10
480;DHT22;226;48.606;9.096;2023-03-11T03:27:56;1.30;20.90
480;DHT22;226;48.606;9.096;2023-03-11T03:30:25;1.50;30.20
480;DHT22;226;48.606;9.096;2023-03-11T03:32:54;1.50;22.70
480;DHT22;226;48.606;9.096;2023-03-11T03:35:24;1.30;27.70
480;DHT22;226;48.606;9.096;2023-03-11T03:37:52;1.20;19.50
480;DHT22;226;48.606;9.096;2023-03-11T03:40:21;1.30;30.80
480;DHT22;226;48.606;9.096;2023-03-11T03:42:49;1.20;20.50
480;DHT22;226;48.606;9.096;2023-03-11T03:45:17;1.20;28.50
480;DHT22;226;48.606;9.096;2023-03-11T03:47:45;1.10;20.50
480;DHT22;226;48.606;9.096;2023-03-11T03:50:13;-0.10;32.90
480;DHT22;226;48.606;9.096;2023-03-11T03:52:43;1.00;32.50
480;DHT22;226;48.606;9.096;2023-03-11T03:55:11;0.90;34.70
480;DHT22;226;48.606;9.096;2023-03-11T03:57:39;0.90;33.70
480;DHT22;226;48.606;9.096;2023-03-11T04:00:09;0.80;23.30
480;DHT22;226;48.606;9.096;2023-03-11T04:02:38;0.80;25.40
480;DHT22;226;48.606;9.096;2023-03-11T04:05:07;0.10;33.00
480;DHT22;226;48.606;9.096;2023-03-11T04:07:35;0.60;20.40
480;DHT22;226;48.606;9.096;2023-03-11T04:10:06;0.60;32.10
480;DHT22;226;48.606;9.096;2023-03-11T04:12:34;0.50;18.50
480;DHT22;226;48.606;9.096;2023-03-11T04:15:02;0.60;24.90
480;DHT22;226;48.606;9.096;2023-03-11T04:17:31;0.50;19.60
480;DHT22;226;48.606;9.096;2023-03-11T04:19:59;0.70;22.90
480;DHT22;226;48.606;9.096;2023-03-11T04:22:27;0.60;32.60
480;DHT22;226;48.606;9.096;2023-03-11T04:24:55;0.50;20.70
480;DHT22;226;48.606;9.096;2023-03-11T04:27:24;0.50;32.90
480;DHT22;226;48.606;9.096;2023-03-11T04:29:52;0.40;21.40
480;DHT22;226;48.606;9.096;2023-03-11T04:32:20;0.60;22.50
480;DHT22;226;48.606;9.096;2023-03-11T04:34:49;0.60;30.00
480;DHT22;226;48.606;9.096;2023-03-11T04:37:17;0.40;20.90
480;DHT22;226;48.606;9.096;2023-03-11T04:39:45;0.40;26.50
480;DHT22;226;48.606;9.096;2023-03-11T04:42:13;0.40;21.60
480;DHT22;226;48.606;9.096;2023-03-11T04:44:43;0.40;30.70
480;DHT22;226;48.606;9.096;2023-03-11T04:47:11;0.40;20.00
480;DHT22;226;48.606;9.096;2023-03-11T04:49:39;0.30;27.60
480;DHT22;226;48.606;9.096;2023-03-11T04:52:07;0.30;22.30
480;DHT22;226;48.606;9.096;2023-03-11T04:54:35;0.30;23.20
480;DHT22;226;48.606;9.096;2023-03-11T04:57:03;0.40;28.20
480;DHT22;226;48.606;9.096;2023-03-11T04:59:31;0.30;22.10
480;DHT22;226;48.606;9.096;2023-03-11T05:02:01;0.40;22.90
480;DHT22;226;48.606;9.096;2023-03-11T05:04:29;0.20;28.10
480;DHT22;226;48.606;9.096;2023-03-11T05:06:57;0.00;23.70
480;DHT22;226;48.606;9.096;2023-03-11T05:09:25;0.00;33.90
480;DHT22;226;48.606;9.096;2023-03-11T05:11:53;0.00;25.30
480;DHT22;226;48.606;9.096;2023-03-11T05:14:21;-0.10;22.90
480;DHT22;226;48.606;9.096;2023-03-11T05:16:49;-0.10;22.50
480;DHT22;226;48.606;9.096;2023-03-11T05:19:19;0.00;21.90
480;DHT22;226;48.606;9.096;2023-03-11T05:22:01;0.60;22.90
480;DHT22;226;48.606;9.096;2023-03-11T05:24:30;-0.10;23.00
480;DHT22;226;48.606;9.096;2023-03-11T05:26:58;-0.10;24.20
480;DHT22;226;48.606;9.096;2023-03-11T05:29:27;-0.10;23.10
480;DHT22;226;48.606;9.096;2023-03-11T05:31:55;-0.10;24.80
480;DHT22;226;48.606;9.096;2023-03-11T05:34:25;-0.10;35.00
480;DHT22;226;48.606;9.096;2023-03-11T05:36:53;-0.20;22.10
480;DHT22;226;48.606;9.096;2023-03-11T05:39:21;-0.10;24.60
480;DHT22;226;48.606;9.096;2023-03-11T05:41:49;0.00;26.80
480;DHT22;226;48.606;9.096;2023-03-11T05:44:17;-1.40;34.60
480;DHT22;226;48.606;9.096;2023-03-11T05:46:45;-0.10;23.60
480;DHT22;226;48.606;9.096;2023-03-11T05:49:14;0.10;25.50
480;DHT22;226;48.606;9.096;2023-03-11T05:51:43;0.10;25.20
480;DHT22;226;48.606;9.096;2023-03-11T05:54:12;0.20;34.00
480;DHT22;226;48.606;9.096;2023-03-11T05:56:41;0.10;21.70
480;DHT22;226;48.606;9.096;2023-03-11T05:59:11;0.20;32.70
480;DHT22;226;48.606;9.096;2023-03-11T06:01:42;0.10;23.50
480;DHT22;226;48.606;9.096;2023-03-11T06:04:11;0.30;37.40
480;DHT22;226;48.606;9.096;2023-03-11T06:06:39;0.00;22.80
480;DHT22;226;48.606;9.096;2023-03-11T06:09:12;0.00;28.70
480;DHT22;226;48.606;9.096;2023-03-11T06:11:40;0.10;24.90
480;DHT22;226;48.606;9.096;2023-03-11T06:14:10;0.30;37.20
480;DHT22;226;48.606;9.096;2023-03-11T06:16:39;0.10;22.90
480;DHT22;226;48.606;9.096;2023-03-11T06:19:08;0.30;25.20
480;DHT22;226;48.606;9.096;2023-03-11T06:21:36;0.00;29.70
480;DHT22;226;48.606;9.096;2023-03-11T06:24:05;-0.10;25.70
480;DHT22;226;48.606;9.096;2023-03-11T06:26:34;-0.10;28.90
480;DHT22;226;48.606;9.096;2023-03-11T06:29:03;0.00;38.90
480;DHT22;226;48.606;9.096;2023-03-11T06:31:31;0.00;23.60
480;DHT22;226;48.606;9.096;2023-03-11T06:34:00;0.20;28.10
480;DHT22;226;48.606;9.096;2023-03-11T06:36:28;0.20;23.90
480;DHT22;226;48.606;9.096;2023-03-11T06:38:56;0.20;36.10
480;DHT22;226;48.606;9.096;2023-03-11T06:41:24;0.20;25.60
480;DHT22;226;48.606;9.096;2023-03-11T06:43:56;0.20;35.10
480;DHT22;226;48.606;9.096;2023-03-11T06:46:25;0.50;22.10
480;DHT22;226;48.606;9.096;2023-03-11T06:48:53;0.30;24.80
480;DHT22;226;48.606;9.096;2023-03-11T06:51:22;0.30;25.80
480;DHT22;226;48.606;9.096;2023-03-11T06:53:51;0.40;32.20
480;DHT22;226;48.606;9.096;2023-03-11T06:56:20;0.40;22.00
480;DHT22;226;48.606;9.096;2023-03-11T06:58:49;0.60;23.40
480;DHT22;226;48.606;9.096;2023-03-11T07:01:20;0.80;28.80
480;DHT22;226;48.606;9.096;2023-03-11T07:03:49;0.90;22.00
480;DHT22;226;48.606;9.096;2023-03-11T07:06:20;1.00;21.80
480;DHT22;226;48.606;9.096;2023-03-11T07:08:50;1.20;24.20
480;DHT22;226;48.606;9.096;2023-03-11T07:11:20;1.30;22.90
480;DHT22;226;48.606;9.096;2023-03-11T07:13:49;1.30;22.20
480;DHT22;226;48.606;9.096;2023-03-11T07:16:21;1.40;23.00
480;DHT22;226;48.606;9.096;2023-03-11T07:18:51;1.40;27.00
480;DHT22;226;48.606;9.096;2023-03-11T07:21:21;1.50;19.50
480;DHT22;226;48.606;9.096;2023-03-11T07:23:51;1.50;29.80
480;DHT22;226;48.606;9.096;2023-03-11T07:26:21;1.80;16.60
480;DHT22;226;48.606;9.096;2023-03-11T07:28:50;1.70;19.80
480;DHT22;226;48.606;9.096;2023-03-11T07:31:23;1.60;20.70
480;DHT22;226;48.606;9.096;2023-03-11T07:33:51;1.60;19.50
480;DHT22;226;48.606;9.096;2023-03-11T07:36:21;1.50;29.40
480;DHT22;226;48.606;9.096;2023-03-11T07:38:54;1.30;17.60
480;DHT22;226;48.606;9.096;2023-03-11T07:41:24;1.30;20.40
480;DHT22;226;48.606;9.096;2023-03-11T07:43:53;1.30;20.10
480;DHT22;226;48.606;9.096;2023-03-11T07:46:24;1.30;30.00
480;DHT22;226;48.606;9.096;2023-03-11T07:48:53;1.30;17.60
480;DHT22;226;48.606;9.096;2023-03-11T07:51:24;1.30;20.60
480;DHT22;226;48.606;9.096;2023-03-11T07:53:54;1.40;22.20
480;DHT22;226;48.606;9.096;2023-03-11T07:56:23;1.50;21.60
480;DHT22;226;48.606;9.096;2023-03-11T07:58:52;1.40;21.20
480;DHT22;226;48.606;9.096;2023-03-11T08:01:23;1.30;20.20
480;DHT22;226;48.606;9.096;2023-03-11T08:03:53;1.20;21.00
480;DHT22;226;48.606;9.096;2023-03-11T08:06:27;1.40;22.70
480;DHT22;226;48.606;9.096;2023-03-11T08:08:59;1.50;21.60
480;DHT22;226;48.606;9.096;2023-03-11T08:11:29;1.60;31.80
480;DHT22;226;48.606;9.096;2023-03-11T08:13:57;1.60;18.70
480;DHT22;226;48.606;9.096;2023-03-11T08:16:27;1.70;17.80
480;DHT22;226;48.606;9.096;2023-03-11T08:18:56;1.80;20.10
480;DHT22;226;48.606;9.096;2023-03-11T08:21:27;1.90;25.30
480;DHT22;226;48.606;9.096;2023-03-11T08:23:57;1.90;15.70
480;DHT22;226;48.606;9.096;2023-03-11T08:26:25;1.80;16.90
480;DHT22;226;48.606;9.096;2023-03-11T08:28:54;1.70;19.50
480;DHT22;226;48.606;9.096;2023-03-11T08:31:25;1.70;18.00
480;DHT22;226;48.606;9.096;2023-03-11T08:33:57;1.80;19.70
480;DHT22;226;48.606;9.096;2023-03-11T08:36:27;1.90;19.50
480;DHT22;226;48.606;9.096;2023-03-11T08:38:56;2.00;19.70
480;DHT22;226;48.606;9.096;2023-03-11T08:41:25;1.80;18.80
480;DHT22;226;48.606;9.096;2023-03-11T08:43:53;1.70;19.40
480;DHT22;226;48.606;9.096;2023-03-11T08:46:24;1.80;20.10
480;DHT22;226;48.606;9.096;2023-03-11T08:48:53;2.00;28.90
480;DHT22;226;48.606;9.096;2023-03-11T08:51:23;1.90;14.40
480;DHT22;226;48.606;9.096;2023-03-11T08:53:52;2.20;16.20
480;DHT22;226;48.606;9.096;2023-03-11T08:56:20;2.30;16.40
480;DHT22;226;48.606;9.096;2023-03-11T08:58:49;2.40;16.60
480;DHT22;226;48.606;9.096;2023-03-11T09:01:17;2.50;19.80
480;DHT22;226;48.606;9.096;2023-03-11T09:03:46;2.60;18.70
480;DHT22;226;48.606;9.096;2023-03-11T09:06:15;2.70;17.70
480;DHT22;226;48.606;9.096;2023-03-11T09:08:46;2.60;17.70
480;DHT22;226;48.606;9.096;2023-03-11T09:11:15;2.70;16.60
480;DHT22;226;48.606;9.096;2023-03-11T09:13:44;2.90;16.20
480;DHT22;226;48.606;9.096;2023-03-11T09:16:14;3.00;15.60
480;DHT22;226;48.606;9.096;2023-03-11T09:18:44;2.90;15.50
480;DHT22;226;48.606;9.096;2023-03-11T09:21:12;3.00;14.90
480;DHT22;226;48.606;9.096;2023-03-11T09:23:41;3.00;14.70
480;DHT22;226;48.606;9.096;2023-03-11T09:26:12;2.90;15.10
480;DHT22;226;48.606;9.096;2023-03-11T09:28:41;2.90;15.50
480;DHT22;226;48.606;9.096;2023-03-11T09:31:09;3.20;13.90
480;DHT22;226;48.606;9.096;2023-03-11T09:33:39;3.00;14.50
480;DHT22;226;48.606;9.096;2023-03-11T09:36:11;3.10;14.40
480;DHT22;226;48.606;9.096;2023-03-11T09:38:41;3.40;15.10
480;DHT22;226;48.606;9.096;2023-03-11T09:41:21;3.60;12.60
480;DHT22;226;48.606;9.096;2023-03-11T09:44:05;3.30;11.70
480;DHT22;226;48.606;9.096;2023-03-11T09:50:08;3.00;12.30
480;DHT22;226;48.606;9.096;2023-03-11T09:52:43;3.10;14.30
480;DHT22;226;48.606;9.096;2023-03-11T09:55:34;3.40;14.20
480;DHT22;226;48.606;9.096;2023-03-11T09:58:10;3.70;12.60
480;DHT22;226;48.606;9.096;2023-03-11T10:00:39;3.90;11.50
480;DHT22;226;48.606;9.096;2023-03-11T10:03:17;4.00;11.10
480;DHT22;226;48.606;9.096;2023-03-11T10:05:51;4.00;9.60
480;DHT22;226;48.606;9.096;2023-03-11T10:08:26;3.90;9.30
480;DHT22;226;48.606;9.096;2023-03-11T10:11:00;3.70;9.80
480;DHT22;226;48.606;9.096;2023-03-11T10:13:35;3.50;10.00
480;DHT22;226;48.606;9.096;2023-03-11T10:16:13;3.60;10.20
480;DHT22;226;48.606;9.096;2023-03-11T10:18:51;3.50;10.20
480;DHT22;226;48.606;9.096;2023-03-11T10:21:33;3.50;9.30
480;DHT22;226;48.606;9.096;2023-03-11T10:24:12;3.40;8.40
480;DHT22;226;48.606;9.096;2023-03-11T10:26:45;3.20;8.50
480;DHT22;226;48.606;9.096;2023-03-11T10:29:20;2.90;9.10
480;DHT22;226;48.606;9.096;2023-03-11T10:31:55;2.90;9.60
480;DHT22;226;48.606;9.096;2023-03-11T10:34:27;3.00;10.00
480;DHT22;226;48.606;9.096;2023-03-11T10:37:01;2.90;10.00
480;DHT22;226;48.606;9.096;2023-03-11T10:39:31;2.70;10.20
480;DHT22;226;48.606;9.096;2023-03-11T10:42:01;2.90;9.70
480;DHT22;226;48.606;9.096;2023-03-11T10:44:33;3.00;12.10
480;DHT22;226;48.606;9.096;2023-03-11T10:47:03;3.10;9.00
480;DHT22;226;48.606;9.096;2023-03-11T10:49:32;3.20;10.10
480;DHT22;226;48.606;9.096;2023-03-11T10:52:02;3.40;9.70
480;DHT22;226;48.606;9.096;2023-03-11T10:54:33;3.70;9.70
480;DHT22;226;48.606;9.096;2023-03-11T10:57:02;3.90;10.00
480;DHT22;226;48.606;9.096;2023-03-11T10:59:33;4.10;9.30
480;DHT22;226;48.606;9.096;2023-03-11T11:02:21;4.30;9.50
480;DHT22;226;48.606;9.096;2023-03-11T11:05:04;4.40;9.70
480;DHT22;226;48.606;9.096;2023-03-11T11:07:34;4.50;8.40
480;DHT22;226;48.606;9.096;2023-03-11T11:10:15;4.70;8.10
480;DHT22;226;48.606;9.096;2023-03-11T11:12:55;4.70;7.50
480;DHT22;226;48.606;9.096;2023-03-11T11:15:28;4.80;6.70
480;DHT22;226;48.606;9.096;2023-03-11T11:17:59;4.90;6.50
480;DHT22;226;48.606;9.096;2023-03-11T11:20:28;5.00;9.30
480;DHT22;226;48.606;9.096;2023-03-11T11:22:58;5.10;8.80
480;DHT22;226;48.606;9.096;2023-03-11T11:25:29;5.30;8.70
480;DHT22;226;48.606;9.096;2023-03-11T11:28:00;5.30;7.60
480;DHT22;226;48.606;9.096;2023-03-11T11:30:32;5.40;8.20
480;DHT22;226;48.606;9.096;2023-03-11T11:33:21;5.40;6.40
480;DHT22;226;48.606;9.096;2023-03-11T11:35:51;5.40;6.70
480;DHT22;226;48.606;9.096;2023-03-11T11:38:23;5.50;7.40
480;DHT22;226;48.606;9.096;2023-03-11T11:40:52;5.10;5.30
480;DHT22;226;48.606;9.096;2023-03-11T11:43:31;5.00;6.30
480;DHT22;226;48.606;9.096;2023-03-11T11:46:09;4.70;5.80
480;DHT22;226;48.606;9.096;2023-03-11T11:48:46;4.60;8.10
480;DHT22;226;48.606;9.096;2023-03-11T11:51:18;4.70;7.10
480;DHT22;226;48.606;9.096;2023-03-11T11:53:51;4.50;6.60
480;DHT22;226;48.606;9.096;2023-03-11T11:56:22;4.40;7.40
480;DHT22;226;48.606;9.096;2023-03-11T11:58:51;4.50;6.60
480;DHT22;226;48.606;9.096;2023-03-11T12:01:29;4.50;5.00
480;DHT22;226;48.606;9.096;2023-03-11T12:04:17;4.40;6.00
480;DHT22;226;48.606;9.096;2023-03-11T12:06:50;4.40;5.20
480;DHT22;226;48.606;9.096;2023-03-11T12:09:26;4.50;6.00
480;DHT22;226;48.606;9.096;2023-03-11T12:12:01;4.30;6.30
480;DHT22;226;48.606;9.096;2023-03-11T12:14:36;4.30;8.90
480;DHT22;226;48.606;9.096;2023-03-11T12:17:12;4.50;7.90
480;DHT22;226;48.606;9.096;2023-03-11T12:19:46;4.50;7.00
480;DHT22;226;48.606;9.096;2023-03-11T12:25:27;4.60;7.10
480;DHT22;226;48.606;9.096;2023-03-11T12:28:03;4.70;8.20
480;DHT22;226;48.606;9.096;2023-03-11T12:30:40;4.70;7.10
480;DHT22;226;48.606;9.096;2023-03-11T12:33:15;4.90;7.30
480;DHT22;226;48.606;9.096;2023-03-11T12:35:49;5.00;6.20
480;DHT22;226;48.606;9.096;2023-03-11T12:38:24;5.00;4.30
480;DHT22;226;48.606;9.096;2023-03-11T12:40:59;5.00;4.90
480;DHT22;226;48.606;9.096;2023-03-11T12:43:56;5.00;4.30
480;DHT22;226;48.606;9.096;2023-03-11T12:46:59;5.10;3.80
480;DHT22;226;48.606;9.096;2023-03-11T12:49:30;5.00;4.00
480;DHT22;226;48.606;9.096;2023-03-11T12:52:04;5.20;5.70
480;DHT22;226;48.606;9.096;2023-03-11T12:54:34;5.40;6.50
480;DHT22;226;48.606;9.096;2023-03-11T12:57:06;5.60;18.60
480;DHT22;226;48.606;9.096;2023-03-11T13:06:15;6.10;12.20
480;DHT22;226;48.606;9.096;2023-03-11T13:08:50;6.30;13.00
480;DHT22;226;48.606;9.096;2023-03-11T13:11:42;6.40;16.40
480;DHT22;226;48.606;9.096;2023-03-11T13:14:26;6.40;15.90
480;DHT22;226;48.606;9.096;2023-03-11T13:16:56;6.30;17.10
480;DHT22;226;48.606;9.096;2023-03-11T13:19:36;6.10;14.00
480;DHT22;226;48.606;9.096;2023-03-11T13:25:32;5.80;10.60
480;DHT22;226;48.606;9.096;2023-03-11T13:28:23;6.10;13.50
480;DHT22;226;48.606;9.096;2023-03-11T13:30:58;5.70;9.70
480;DHT22;226;48.606;9.096;2023-03-11T13:33:50;5.90;10.40
480;DHT22;226;48.606;9.096;2023-03-11T13:36:45;6.10;9.70
480;DHT22;226;48.606;9.096;2023-03-11T13:39:28;6.40;9.40
480;DHT22;226;48.606;9.096;2023-03-11T13:41:59;6.70;22.70
480;DHT22;226;48.606;9.096;2023-03-11T13:44:35;6.80;19.00
480;DHT22;226;48.606;9.096;2023-03-11T13:47:08;6.80;18.20
480;DHT22;226;48.606;9.096;2023-03-11T13:49:41;6.60;17.70
480;DHT22;226;48.606;9.096;2023-03-11T13:52:13;6.80;17.90
480;DHT22;226;48.606;9.096;2023-03-11T13:54:45;6.60;12.80
480;DHT22;226;48.606;9.096;2023-03-11T13:57:22;6.20;9.40
480;DHT22;226;48.606;9.096;2023-03-11T13:59:52;5.90;8.50
480;DHT22;226;48.606;9.096;2023-03-11T14:02:22;6.00;8.70
480;DHT22;226;48.606;9.096;2023-03-11T14:04:53;5.90;9.20
480;DHT22;226;48.606;9.096;2023-03-11T14:07:27;5.90;12.40
480;DHT22;226;48.606;9.096;2023-03-11T14:10:19;6.10;11.90
480;DHT22;226;48.606;9.096;2023-03-11T14:12:49;6.60;17.20
480;DHT22;226;48.606;9.096;2023-03-11T14:15:20;6.80;20.10
480;DHT22;226;48.606;9.096;2023-03-11T14:17:50;6.70;19.70
480;DHT22;226;48.606;9.096;2023-03-11T14:20:20;6.90;19.10
480;DHT22;226;48.606;9.096;2023-03-11T16:04:22;7.30;2.80
480;DHT22;226;48.606;9.096;2023-03-11T16:06:51;7.20;6.20
480;DHT22;226;48.606;9.096;2023-03-11T16:09:33;7.20;5.80
480;DHT22;226;48.606;9.096;2023-03-11T16:12:11;6.90;6.50
480;DHT22;226;48.606;9.096;2023-03-11T16:14:40;6.70;6.70
480;DHT22;226;48.606;9.096;2023-03-11T16:17:09;6.60;7.80
480;DHT22;226;48.606;9.096;2023-03-11T16:19:40;6.50;8.10
480;DHT22;226;48.606;9.096;2023-03-11T16:22:14;6.40;7.90
480;DHT22;226;48.606;9.096;2023-03-11T16:24:44;6.50;8.10
480;DHT22;226;48.606;9.096;2023-03-11T16:27:14;6.60;9.20
480;DHT22;226;48.606;9.096;2023-03-11T16:29:44;6.50;8.40
480;DHT22;226;48.606;9.096;2023-03-11T16:32:13;6.50;8.40
480;DHT22;226;48.606;9.096;2023-03-11T16:34:42;6.40;7.80
480;DHT22;226;48.606;9.096;2023-03-11T16:37:13;6.50;7.60
480;DHT22;226;48.606;9.096;2023-03-11T16:39:42;6.50;7.70
480;DHT22;226;48.606;9.096;2023-03-11T16:42:10;6.50;7.30
480;DHT22;226;48.606;9.096;2023-03-11T16:44:38;6.40;7.50
480;DHT22;226;48.606;9.096;2023-03-11T16:47:07;6.40;7.60
480;DHT22;226;48.606;9.096;2023-03-11T16:49:36;6.40;8.50
480;DHT22;226;48.606;9.096;2023-03-11T16:52:05;6.20;7.90
480;DHT22;226;48.606;9.096;2023-03-11T16:54:33;6.00;9.00
480;DHT22;226;48.606;9.096;2023-03-11T16:57:01;6.10;9.30
480;DHT22;226;48.606;9.096;2023-03-11T16:59:29;6.00;9.20
480;DHT22;226;48.606;9.096;2023-03-11T17:01:58;5.90;10.30
480;DHT22;226;48.606;9.096;2023-03-11T17:04:26;5.90;10.40
480;DHT22;226;48.606;9.096;2023-03-11T17:06:55;5.70;9.80
480;DHT22;226;48.606;9.096;2023-03-11T17:09:24;5.60;9.60
480;DHT22;226;48.606;9.096;2023-03-11T17:11:52;5.70;10.20
480;DHT22;226;48.606;9.096;2023-03-11T17:14:20;5.50;9.80
480;DHT22;226;48.606;9.096;2023-03-11T17:16:48;5.60;11.00
480;DHT22;226;48.606;9.096;2023-03-11T17:19:17;5.40;10.20
480;DHT22;226;48.606;9.096;2023-03-11T17:21:45;5.30;11.90
480;DHT22;226;48.606;9.096;2023-03-11T17:24:15;5.10;15.40
480;DHT22;226;48.606;9.096;2023-03-11T17:26:43;5.20;16.10
480;DHT22;226;48.606;9.096;2023-03-11T17:29:11;5.20;16.30
480;DHT22;226;48.606;9.096;2023-03-11T17:31:40;5.20;13.40
480;DHT22;226;48.606;9.096;2023-03-11T17:34:08;4.20;13.50
480;DHT22;226;48.606;9.096;2023-03-11T17:36:38;5.10;14.80
480;DHT22;226;48.606;9.096;2023-03-11T17:39:07;5.00;15.30
480;DHT22;226;48.606;9.096;2023-03-11T17:41:37;5.00;15.80
480;DHT22;226;48.606;9.096;2023-03-11T17:44:05;5.00;15.30
480;DHT22;226;48.606;9.096;2023-03-11T17:46:34;4.90;13.30
480;DHT22;226;48.606;9.096;2023-03-11T17:49:05;4.90;15.60
480;DHT22;226;48.606;9.096;2023-03-11T17:51:33;4.70;13.70
480;DHT22;226;48.606;9.096;2023-03-11T17:54:02;4.70;15.80
480;DHT22;226;48.606;9.096;2023-03-11T17:56:31;4.60;14.10
480;DHT22;226;48.606;9.096;2023-03-11T17:59:00;4.60;15.90
480;DHT22;226;48.606;9.096;2023-03-11T18:01:29;4.60;15.80
480;DHT22;226;48.606;9.096;2023-03-11T18:03:57;4.40;15.10
480;DHT22;226;48.606;9.096;2023-03-11T18:06:26;4.30;12.20
480;DHT22;226;48.606;9.096;2023-03-11T18:08:55;4.30;15.30
480;DHT22;226;48.606;9.096;2023-03-11T18:11:25;4.30;8.60
480;DHT22;226;48.606;9.096;2023-03-11T18:13:54;4.20;12.00
480;DHT22;226;48.606;9.096;2023-03-11T18:16:25;4.20;9.50
480;DHT22;226;48.606;9.096;2023-03-11T18:18:55;4.20;9.50
480;DHT22;226;48.606;9.096;2023-03-11T18:21:26;4.00;11.20
480;DHT22;226;48.606;9.096;2023-03-11T18:23:56;4.00;16.80
480;DHT22;226;48.606;9.096;2023-03-11T18:26:26;3.90;12.60
480;DHT22;226;48.606;9.096;2023-03-11T18:28:55;3.90;13.50
480;DHT22;226;48.606;9.096;2023-03-11T18:31:26;3.70;17.20
480;DHT22;226;48.606;9.096;2023-03-11T18:33:56;3.70;17.30
480;DHT22;226;48.606;9.096;2023-03-11T18:36:27;3.90;18.60
480;DHT22;226;48.606;9.096;2023-03-11T18:38:56;3.70;16.40
480;DHT22;226;48.606;9.096;2023-03-11T18:41:26;3.60;26.40
480;DHT22;226;48.606;9.096;2023-03-11T18:43:55;3.60;29.20
480;DHT22;226;48.606;9.096;2023-03-11T18:46:26;3.20;29.40
480;DHT22;226;48.606;9.096;2023-03-11T18:48:58;3.00;29.60
480;DHT22;226;48.606;9.096;2023-03-11T18:51:28;3.00;29.80
480;DHT22;226;48.606;9.096;2023-03-11T18:53:57;2.90;30.00
480;DHT22;226;48.606;9.096;2023-03-11T18:56:25;2.80;30.00
480;DHT22;226;48.606;9.096;2023-03-11T18:58:56;2.70;30.70
480;DHT22;226;48.606;9.096;2023-03-11T19:01:26;2.70;31.00
480;DHT22;226;48.606;9.096;2023-03-11T19:03:57;2.60;31.80
480;DHT22;226;48.606;9.096;2023-03-11T19:06:26;2.30;53.00
480;DHT22;226;48.606;9.096;2023-03-11T19:08:55;2.20;53.20
480;DHT22;226;48.606;9.096;2023-03-11T19:11:24;2.10;51.10
480;DHT22;226;48.606;9.096;2023-03-11T19:13:53;2.00;48.50
480;DHT22;226;48.606;9.096;2023-03-11T19:16:23;1.90;45.90